Terminal Aerodrome Forecast
Issued by NWS

Home | Current Version | Previous Version | Text Only | Print | Product List | Glossary On
Versions: 1 2 3 4 5 6 7 8 9 10 11 12 13 14 15 16 17 18 19 20
000
FTUS42 KJAX 201300 AAA
TAFCRG
TAF AMD
KCRG 201348Z 2014/2112 01006KT P6SM VCSH SCT040 OVC100
      TEMPO 2015/2019 VRB15G25KT 3SM SHRA OVC025
     FM202000 05008KT P6SM -SHRA OVC030=

USA.gov is the U.S. government's official web portal to all federal, state and local government web resources and services.